sensor_id;sensor_type;location;lat;lon;timestamp;temperature;humidity
24162;DHT22;12318;51.262;7.066;2023-01-28T00:00:07;2.90;99.90
24162;DHT22;12318;51.262;7.066;2023-01-28T00:02:36;2.90;99.90
24162;DHT22;12318;51.262;7.066;2023-01-28T00:05:03;2.90;99.90
24162;DHT22;12318;51.262;7.066;2023-01-28T00:07:29;2.80;99.90
24162;DHT22;12318;51.262;7.066;2023-01-28T00:09:55;2.70;99.90
24162;DHT22;12318;51.262;7.066;2023-01-28T00:12:21;2.70;99.90
24162;DHT22;12318;51.262;7.066;2023-01-28T00:14:46;2.50;99.90
24162;DHT22;12318;51.262;7.066;2023-01-28T00:17:13;2.50;99.90
24162;DHT22;12318;51.262;7.066;2023-01-28T00:19:40;2.50;99.90
24162;DHT22;12318;51.262;7.066;2023-01-28T00:22:06;2.60;99.90
24162;DHT22;12318;51.262;7.066;2023-01-28T00:24:31;2.50;99.90
24162;DHT22;12318;51.262;7.066;2023-01-28T00:26:57;2.50;99.90
24162;DHT22;12318;51.262;7.066;2023-01-28T00:29:23;2.60;99.90
24162;DHT22;12318;51.262;7.066;2023-01-28T00:31:51;2.50;99.90
24162;DHT22;12318;51.262;7.066;2023-01-28T00:34:17;2.50;99.90
24162;DHT22;12318;51.262;7.066;2023-01-28T00:36:42;2.50;99.90
24162;DHT22;12318;51.262;7.066;2023-01-28T00:39:12;2.50;99.90
24162;DHT22;12318;51.262;7.066;2023-01-28T00:41:38;2.20;99.90
24162;DHT22;12318;51.262;7.066;2023-01-28T00:44:04;2.30;99.90
24162;DHT22;12318;51.262;7.066;2023-01-28T00:46:30;2.40;99.90
24162;DHT22;12318;51.262;7.066;2023-01-28T00:48:56;2.40;99.90
24162;DHT22;12318;51.262;7.066;2023-01-28T00:51:22;2.30;99.90
24162;DHT22;12318;51.262;7.066;2023-01-28T00:53:48;2.40;99.90
24162;DHT22;12318;51.262;7.066;2023-01-28T00:56:15;2.50;99.90
24162;DHT22;12318;51.262;7.066;2023-01-28T00:58:42;2.40;99.90
24162;DHT22;12318;51.262;7.066;2023-01-28T01:01:21;2.40;99.90
24162;DHT22;12318;51.262;7.066;2023-01-28T01:03:48;2.40;99.90
24162;DHT22;12318;51.262;7.066;2023-01-28T01:06:29;2.30;99.90
24162;DHT22;12318;51.262;7.066;2023-01-28T01:08:55;2.30;99.90
24162;DHT22;12318;51.262;7.066;2023-01-28T01:11:20;2.30;99.90
24162;DHT22;12318;51.262;7.066;2023-01-28T01:13:54;2.10;99.90
24162;DHT22;12318;51.262;7.066;2023-01-28T01:16:22;2.10;99.90
24162;DHT22;12318;51.262;7.066;2023-01-28T01:18:50;2.00;99.90
24162;DHT22;12318;51.262;7.066;2023-01-28T01:21:18;2.10;99.90
24162;DHT22;12318;51.262;7.066;2023-01-28T01:23:45;2.10;99.90
24162;DHT22;12318;51.262;7.066;2023-01-28T01:26:12;2.00;99.90
24162;DHT22;12318;51.262;7.066;2023-01-28T01:28:37;2.00;99.90
24162;DHT22;12318;51.262;7.066;2023-01-28T01:31:06;2.00;99.90
24162;DHT22;12318;51.262;7.066;2023-01-28T01:33:33;2.10;99.90
24162;DHT22;12318;51.262;7.066;2023-01-28T01:35:59;1.90;99.90
24162;DHT22;12318;51.262;7.066;2023-01-28T01:38:26;1.90;99.90
24162;DHT22;12318;51.262;7.066;2023-01-28T01:40:55;2.00;99.90
24162;DHT22;12318;51.262;7.066;2023-01-28T01:46:11;2.10;99.90
24162;DHT22;12318;51.262;7.066;2023-01-28T01:48:43;2.00;99.90
24162;DHT22;12318;51.262;7.066;2023-01-28T01:51:12;2.00;99.90
24162;DHT22;12318;51.262;7.066;2023-01-28T01:53:46;2.00;99.90
24162;DHT22;12318;51.262;7.066;2023-01-28T01:56:18;2.00;99.90
24162;DHT22;12318;51.262;7.066;2023-01-28T01:58:48;1.90;99.90
24162;DHT22;12318;51.262;7.066;2023-01-28T02:01:24;1.80;99.90
24162;DHT22;12318;51.262;7.066;2023-01-28T02:04:00;1.80;99.90
24162;DHT22;12318;51.262;7.066;2023-01-28T02:09:56;1.90;99.90
24162;DHT22;12318;51.262;7.066;2023-01-28T02:12:51;1.80;99.90
24162;DHT22;12318;51.262;7.066;2023-01-28T02:15:26;1.90;99.90
24162;DHT22;12318;51.262;7.066;2023-01-28T02:17:55;1.80;99.90
24162;DHT22;12318;51.262;7.066;2023-01-28T02:20:26;1.80;99.90
24162;DHT22;12318;51.262;7.066;2023-01-28T02:26:46;1.70;99.90
24162;DHT22;12318;51.262;7.066;2023-01-28T02:29:41;1.80;99.90
24162;DHT22;12318;51.262;7.066;2023-01-28T02:32:19;1.70;99.90
24162;DHT22;12318;51.262;7.066;2023-01-28T02:35:11;1.60;99.90
24162;DHT22;12318;51.262;7.066;2023-01-28T02:37:52;1.60;99.90
24162;DHT22;12318;51.262;7.066;2023-01-28T02:57:36;1.90;99.90
24162;DHT22;12318;51.262;7.066;2023-01-28T03:00:29;1.80;99.90
24162;DHT22;12318;51.262;7.066;2023-01-28T03:02:58;1.90;99.90
24162;DHT22;12318;51.262;7.066;2023-01-28T03:05:55;1.90;99.90
24162;DHT22;12318;51.262;7.066;2023-01-28T03:11:30;2.00;99.90
24162;DHT22;12318;51.262;7.066;2023-01-28T03:14:17;1.90;99.90
24162;DHT22;12318;51.262;7.066;2023-01-28T03:17:03;1.70;99.90
24162;DHT22;12318;51.262;7.066;2023-01-28T03:19:52;1.80;99.90
24162;DHT22;12318;51.262;7.066;2023-01-28T03:22:41;1.90;99.90
24162;DHT22;12318;51.262;7.066;2023-01-28T03:25:29;1.90;99.90
24162;DHT22;12318;51.262;7.066;2023-01-28T03:28:16;1.80;99.90
24162;DHT22;12318;51.262;7.066;2023-01-28T03:31:14;1.80;99.90
24162;DHT22;12318;51.262;7.066;2023-01-28T03:34:01;1.80;99.90
24162;DHT22;12318;51.262;7.066;2023-01-28T03:36:48;1.70;99.90
24162;DHT22;12318;51.262;7.066;2023-01-28T03:39:37;1.70;99.90
24162;DHT22;12318;51.262;7.066;2023-01-28T03:42:04;1.70;99.90
24162;DHT22;12318;51.262;7.066;2023-01-28T03:44:31;1.70;99.90
24162;DHT22;12318;51.262;7.066;2023-01-28T03:47:16;1.60;99.90
24162;DHT22;12318;51.262;7.066;2023-01-28T03:49:43;1.70;99.90
24162;DHT22;12318;51.262;7.066;2023-01-28T03:52:25;1.60;99.90
24162;DHT22;12318;51.262;7.066;2023-01-28T03:54:57;1.60;99.90
24162;DHT22;12318;51.262;7.066;2023-01-28T03:57:25;1.60;99.90
24162;DHT22;12318;51.262;7.066;2023-01-28T03:59:51;1.70;99.90
24162;DHT22;12318;51.262;7.066;2023-01-28T04:02:21;1.70;99.90
24162;DHT22;12318;51.262;7.066;2023-01-28T04:04:48;1.80;99.90
24162;DHT22;12318;51.262;7.066;2023-01-28T04:07:15;1.90;99.90
24162;DHT22;12318;51.262;7.066;2023-01-28T04:09:41;1.90;99.90
24162;DHT22;12318;51.262;7.066;2023-01-28T04:12:08;1.60;99.90
24162;DHT22;12318;51.262;7.066;2023-01-28T04:14:35;1.50;99.90
24162;DHT22;12318;51.262;7.066;2023-01-28T04:17:04;1.60;99.90
24162;DHT22;12318;51.262;7.066;2023-01-28T04:19:34;1.50;99.90
24162;DHT22;12318;51.262;7.066;2023-01-28T04:22:10;1.60;99.90
24162;DHT22;12318;51.262;7.066;2023-01-28T04:24:39;1.70;99.90
24162;DHT22;12318;51.262;7.066;2023-01-28T04:27:05;1.70;99.90
24162;DHT22;12318;51.262;7.066;2023-01-28T04:29:33;1.70;99.90
24162;DHT22;12318;51.262;7.066;2023-01-28T04:31:59;1.70;99.90
24162;DHT22;12318;51.262;7.066;2023-01-28T04:34:26;1.60;99.90
24162;DHT22;12318;51.262;7.066;2023-01-28T04:36:52;1.70;99.90
24162;DHT22;12318;51.262;7.066;2023-01-28T04:39:17;1.70;99.90
24162;DHT22;12318;51.262;7.066;2023-01-28T04:41:43;1.70;99.90
24162;DHT22;12318;51.262;7.066;2023-01-28T04:44:09;1.60;99.90
24162;DHT22;12318;51.262;7.066;2023-01-28T04:46:34;1.50;99.90
24162;DHT22;12318;51.262;7.066;2023-01-28T04:49:03;1.50;99.90
24162;DHT22;12318;51.262;7.066;2023-01-28T04:51:29;1.50;99.90
24162;DHT22;12318;51.262;7.066;2023-01-28T04:53:55;1.60;99.90
24162;DHT22;12318;51.262;7.066;2023-01-28T04:56:20;1.60;99.90
24162;DHT22;12318;51.262;7.066;2023-01-28T04:58:46;1.70;99.90
24162;DHT22;12318;51.262;7.066;2023-01-28T05:01:15;1.70;99.90
24162;DHT22;12318;51.262;7.066;2023-01-28T05:03:41;1.70;99.90
24162;DHT22;12318;51.262;7.066;2023-01-28T05:06:09;1.70;99.90
24162;DHT22;12318;51.262;7.066;2023-01-28T05:08:35;1.50;99.90
24162;DHT22;12318;51.262;7.066;2023-01-28T05:11:04;1.50;99.90
24162;DHT22;12318;51.262;7.066;2023-01-28T05:13:29;1.50;99.90
24162;DHT22;12318;51.262;7.066;2023-01-28T05:15:58;1.60;99.90
24162;DHT22;12318;51.262;7.066;2023-01-28T05:18:24;1.60;99.90
24162;DHT22;12318;51.262;7.066;2023-01-28T05:20:50;1.60;99.90
24162;DHT22;12318;51.262;7.066;2023-01-28T05:23:21;1.60;99.90
24162;DHT22;12318;51.262;7.066;2023-01-28T05:25:47;1.70;99.90
24162;DHT22;12318;51.262;7.066;2023-01-28T05:28:13;1.60;99.90
24162;DHT22;12318;51.262;7.066;2023-01-28T05:30:39;1.70;99.90
24162;DHT22;12318;51.262;7.066;2023-01-28T05:33:04;1.50;99.90
24162;DHT22;12318;51.262;7.066;2023-01-28T05:35:30;1.30;99.90
24162;DHT22;12318;51.262;7.066;2023-01-28T05:37:58;1.30;99.90
24162;DHT22;12318;51.262;7.066;2023-01-28T05:40:25;1.40;99.90
24162;DHT22;12318;51.262;7.066;2023-01-28T05:42:51;1.30;99.90
24162;DHT22;12318;51.262;7.066;2023-01-28T05:45:17;1.30;99.90
24162;DHT22;12318;51.262;7.066;2023-01-28T05:47:45;1.20;99.90
24162;DHT22;12318;51.262;7.066;2023-01-28T05:50:15;1.10;99.90
24162;DHT22;12318;51.262;7.066;2023-01-28T05:52:41;1.10;99.90
24162;DHT22;12318;51.262;7.066;2023-01-28T05:55:08;1.10;99.90
24162;DHT22;12318;51.262;7.066;2023-01-28T05:57:34;1.10;99.90
24162;DHT22;12318;51.262;7.066;2023-01-28T06:00:00;1.10;99.90
24162;DHT22;12318;51.262;7.066;2023-01-28T06:02:27;1.30;99.90
24162;DHT22;12318;51.262;7.066;2023-01-28T06:05:01;1.30;99.90
24162;DHT22;12318;51.262;7.066;2023-01-28T06:07:28;1.40;99.90
24162;DHT22;12318;51.262;7.066;2023-01-28T06:09:53;1.30;99.90
24162;DHT22;12318;51.262;7.066;2023-01-28T06:12:22;1.20;99.90
24162;DHT22;12318;51.262;7.066;2023-01-28T06:14:48;1.10;99.90
24162;DHT22;12318;51.262;7.066;2023-01-28T06:17:13;1.30;99.90
24162;DHT22;12318;51.262;7.066;2023-01-28T06:19:39;1.40;99.90
24162;DHT22;12318;51.262;7.066;2023-01-28T06:22:06;1.30;99.90
24162;DHT22;12318;51.262;7.066;2023-01-28T06:24:32;1.40;99.90
24162;DHT22;12318;51.262;7.066;2023-01-28T06:26:58;1.30;99.90
24162;DHT22;12318;51.262;7.066;2023-01-28T06:29:24;1.30;99.90
24162;DHT22;12318;51.262;7.066;2023-01-28T06:31:51;1.00;99.90
24162;DHT22;12318;51.262;7.066;2023-01-28T06:34:16;1.10;99.90
24162;DHT22;12318;51.262;7.066;2023-01-28T06:36:42;1.00;99.90
24162;DHT22;12318;51.262;7.066;2023-01-28T06:39:08;1.10;99.90
24162;DHT22;12318;51.262;7.066;2023-01-28T06:41:34;1.10;99.90
24162;DHT22;12318;51.262;7.066;2023-01-28T06:44:00;1.10;99.90
24162;DHT22;12318;51.262;7.066;2023-01-28T06:46:26;1.10;99.90
24162;DHT22;12318;51.262;7.066;2023-01-28T06:48:52;1.20;99.90
24162;DHT22;12318;51.262;7.066;2023-01-28T06:51:18;1.30;99.90
24162;DHT22;12318;51.262;7.066;2023-01-28T06:53:44;1.40;99.90
24162;DHT22;12318;51.262;7.066;2023-01-28T06:56:10;1.40;99.90
24162;DHT22;12318;51.262;7.066;2023-01-28T06:58:36;1.40;99.90
24162;DHT22;12318;51.262;7.066;2023-01-28T07:01:02;1.40;99.90
24162;DHT22;12318;51.262;7.066;2023-01-28T07:03:28;1.50;99.90
24162;DHT22;12318;51.262;7.066;2023-01-28T07:05:54;1.50;99.90
24162;DHT22;12318;51.262;7.066;2023-01-28T07:08:20;1.40;99.90
24162;DHT22;12318;51.262;7.066;2023-01-28T07:10:45;1.40;99.90
24162;DHT22;12318;51.262;7.066;2023-01-28T07:13:11;1.40;99.90
24162;DHT22;12318;51.262;7.066;2023-01-28T07:15:37;1.40;99.90
24162;DHT22;12318;51.262;7.066;2023-01-28T07:18:03;1.30;99.90
24162;DHT22;12318;51.262;7.066;2023-01-28T07:20:29;1.20;99.90
24162;DHT22;12318;51.262;7.066;2023-01-28T07:22:55;1.10;99.90
24162;DHT22;12318;51.262;7.066;2023-01-28T07:25:20;1.20;99.90
24162;DHT22;12318;51.262;7.066;2023-01-28T07:27:51;1.20;99.90
24162;DHT22;12318;51.262;7.066;2023-01-28T07:30:18;1.10;99.90
24162;DHT22;12318;51.262;7.066;2023-01-28T07:32:45;1.00;99.90
24162;DHT22;12318;51.262;7.066;2023-01-28T07:35:12;1.10;99.90
24162;DHT22;12318;51.262;7.066;2023-01-28T07:37:38;1.10;99.90
24162;DHT22;12318;51.262;7.066;2023-01-28T07:40:04;1.20;99.90
24162;DHT22;12318;51.262;7.066;2023-01-28T07:42:30;1.20;99.90
24162;DHT22;12318;51.262;7.066;2023-01-28T07:44:56;1.20;99.90
24162;DHT22;12318;51.262;7.066;2023-01-28T07:47:21;1.10;99.90
24162;DHT22;12318;51.262;7.066;2023-01-28T07:49:47;1.00;99.90
24162;DHT22;12318;51.262;7.066;2023-01-28T07:52:13;1.00;99.90
24162;DHT22;12318;51.262;7.066;2023-01-28T07:54:39;1.10;99.90
24162;DHT22;12318;51.262;7.066;2023-01-28T07:57:08;1.30;99.90
24162;DHT22;12318;51.262;7.066;2023-01-28T07:59:35;1.20;99.90
24162;DHT22;12318;51.262;7.066;2023-01-28T08:02:02;1.20;99.90
24162;DHT22;12318;51.262;7.066;2023-01-28T08:04:28;1.00;99.90
24162;DHT22;12318;51.262;7.066;2023-01-28T08:06:54;1.10;99.90
24162;DHT22;12318;51.262;7.066;2023-01-28T08:09:21;0.90;99.90
24162;DHT22;12318;51.262;7.066;2023-01-28T08:11:47;1.00;99.90
24162;DHT22;12318;51.262;7.066;2023-01-28T08:14:13;1.00;99.90
24162;DHT22;12318;51.262;7.066;2023-01-28T08:16:38;1.20;99.90
24162;DHT22;12318;51.262;7.066;2023-01-28T08:19:04;1.20;99.90
24162;DHT22;12318;51.262;7.066;2023-01-28T08:21:30;1.20;99.90
24162;DHT22;12318;51.262;7.066;2023-01-28T08:23:56;1.30;99.90
24162;DHT22;12318;51.262;7.066;2023-01-28T08:26:21;1.00;99.90
24162;DHT22;12318;51.262;7.066;2023-01-28T08:28:47;1.10;99.90
24162;DHT22;12318;51.262;7.066;2023-01-28T08:31:13;1.20;99.90
24162;DHT22;12318;51.262;7.066;2023-01-28T08:33:39;1.30;99.90
24162;DHT22;12318;51.262;7.066;2023-01-28T08:36:05;1.30;99.90
24162;DHT22;12318;51.262;7.066;2023-01-28T08:38:31;1.40;99.90
24162;DHT22;12318;51.262;7.066;2023-01-28T08:40:57;1.50;99.90
24162;DHT22;12318;51.262;7.066;2023-01-28T08:43:24;1.60;99.90
24162;DHT22;12318;51.262;7.066;2023-01-28T08:45:49;1.50;99.90
24162;DHT22;12318;51.262;7.066;2023-01-28T08:48:17;1.50;99.90
24162;DHT22;12318;51.262;7.066;2023-01-28T08:50:43;1.50;99.90
24162;DHT22;12318;51.262;7.066;2023-01-28T08:53:18;1.60;99.90
24162;DHT22;12318;51.262;7.066;2023-01-28T08:55:44;1.50;99.90
24162;DHT22;12318;51.262;7.066;2023-01-28T08:58:15;1.40;99.90
24162;DHT22;12318;51.262;7.066;2023-01-28T09:00:42;1.30;99.90
24162;DHT22;12318;51.262;7.066;2023-01-28T09:03:09;1.20;99.90
24162;DHT22;12318;51.262;7.066;2023-01-28T09:05:35;1.30;99.90
24162;DHT22;12318;51.262;7.066;2023-01-28T09:08:06;1.30;99.90
24162;DHT22;12318;51.262;7.066;2023-01-28T09:10:32;1.30;99.90
24162;DHT22;12318;51.262;7.066;2023-01-28T09:13:03;1.20;99.90
24162;DHT22;12318;51.262;7.066;2023-01-28T09:15:29;1.20;99.90
24162;DHT22;12318;51.262;7.066;2023-01-28T09:17:58;1.20;99.90
24162;DHT22;12318;51.262;7.066;2023-01-28T09:20:24;1.20;99.90
24162;DHT22;12318;51.262;7.066;2023-01-28T09:22:50;1.20;99.90
24162;DHT22;12318;51.262;7.066;2023-01-28T09:25:16;1.30;99.90
24162;DHT22;12318;51.262;7.066;2023-01-28T09:27:42;1.30;99.90
24162;DHT22;12318;51.262;7.066;2023-01-28T09:30:08;1.30;99.90
24162;DHT22;12318;51.262;7.066;2023-01-28T09:32:35;1.20;99.90
24162;DHT22;12318;51.262;7.066;2023-01-28T09:35:01;1.00;99.90
24162;DHT22;12318;51.262;7.066;2023-01-28T09:37:27;1.10;99.90
24162;DHT22;12318;51.262;7.066;2023-01-28T09:39:53;1.20;99.90
24162;DHT22;12318;51.262;7.066;2023-01-28T09:47:52;1.10;99.90
24162;DHT22;12318;51.262;7.066;2023-01-28T09:50:35;1.10;99.90
24162;DHT22;12318;51.262;7.066;2023-01-28T09:53:17;1.20;99.90
24162;DHT22;12318;51.262;7.066;2023-01-28T09:55:47;1.20;99.90
24162;DHT22;12318;51.262;7.066;2023-01-28T09:58:15;1.20;99.90
24162;DHT22;12318;51.262;7.066;2023-01-28T10:00:49;1.10;99.90
24162;DHT22;12318;51.262;7.066;2023-01-28T10:12:03;1.10;99.90
24162;DHT22;12318;51.262;7.066;2023-01-28T10:17:36;1.40;99.90
24162;DHT22;12318;51.262;7.066;2023-01-28T10:22:48;1.50;99.90
24162;DHT22;12318;51.262;7.066;2023-01-28T10:25:28;1.40;99.90
24162;DHT22;12318;51.262;7.066;2023-01-28T10:27:54;1.20;99.90
24162;DHT22;12318;51.262;7.066;2023-01-28T10:30:25;1.20;99.90
24162;DHT22;12318;51.262;7.066;2023-01-28T10:33:00;1.00;99.90
24162;DHT22;12318;51.262;7.066;2023-01-28T10:35:38;1.00;99.90
24162;DHT22;12318;51.262;7.066;2023-01-28T10:38:06;1.00;99.90
24162;DHT22;12318;51.262;7.066;2023-01-28T10:40:34;1.10;99.90
24162;DHT22;12318;51.262;7.066;2023-01-28T10:43:00;1.20;99.90
24162;DHT22;12318;51.262;7.066;2023-01-28T10:47:59;1.30;99.90
24162;DHT22;12318;51.262;7.066;2023-01-28T10:50:27;1.30;99.90
24162;DHT22;12318;51.262;7.066;2023-01-28T10:55:20;1.20;99.90
24162;DHT22;12318;51.262;7.066;2023-01-28T10:57:46;1.20;99.90
24162;DHT22;12318;51.262;7.066;2023-01-28T11:00:23;1.30;99.90
24162;DHT22;12318;51.262;7.066;2023-01-28T11:02:50;1.30;99.90
24162;DHT22;12318;51.262;7.066;2023-01-28T11:07:43;1.30;99.90
24162;DHT22;12318;51.262;7.066;2023-01-28T11:10:42;1.20;99.90
24162;DHT22;12318;51.262;7.066;2023-01-28T11:13:34;1.20;99.90
24162;DHT22;12318;51.262;7.066;2023-01-28T11:16:16;1.20;99.90
24162;DHT22;12318;51.262;7.066;2023-01-28T11:18:54;1.30;99.90
24162;DHT22;12318;51.262;7.066;2023-01-28T11:21:24;1.30;99.90
24162;DHT22;12318;51.262;7.066;2023-01-28T11:23:54;1.30;99.90
24162;DHT22;12318;51.262;7.066;2023-01-28T11:26:27;1.30;99.90
24162;DHT22;12318;51.262;7.066;2023-01-28T11:28:54;1.00;99.90
24162;DHT22;12318;51.262;7.066;2023-01-28T11:31:21;1.30;99.90
24162;DHT22;12318;51.262;7.066;2023-01-28T11:36:30;1.50;99.90
24162;DHT22;12318;51.262;7.066;2023-01-28T11:39:03;1.50;99.90
24162;DHT22;12318;51.262;7.066;2023-01-28T11:41:34;1.40;99.90
24162;DHT22;12318;51.262;7.066;2023-01-28T11:44:20;1.60;99.90
24162;DHT22;12318;51.262;7.066;2023-01-28T12:11:05;1.00;99.90
24162;DHT22;12318;51.262;7.066;2023-01-28T12:14:03;0.90;99.90
24162;DHT22;12318;51.262;7.066;2023-01-28T12:16:45;1.00;99.90
24162;DHT22;12318;51.262;7.066;2023-01-28T12:19:34;1.10;99.90
24162;DHT22;12318;51.262;7.066;2023-01-28T12:27:45;1.10;99.90
24162;DHT22;12318;51.262;7.066;2023-01-28T12:38:50;1.10;99.90
24162;DHT22;12318;51.262;7.066;2023-01-28T12:41:22;1.40;99.90
24162;DHT22;12318;51.262;7.066;2023-01-28T12:44:02;1.60;99.90
24162;DHT22;12318;51.262;7.066;2023-01-28T12:50:17;1.20;99.90
24162;DHT22;12318;51.262;7.066;2023-01-28T12:52:48;1.30;99.90
24162;DHT22;12318;51.262;7.066;2023-01-28T12:55:39;1.50;99.90
24162;DHT22;12318;51.262;7.066;2023-01-28T12:58:08;1.70;99.90
24162;DHT22;12318;51.262;7.066;2023-01-28T13:00:39;1.40;99.90
24162;DHT22;12318;51.262;7.066;2023-01-28T13:05:52;1.10;99.90
24162;DHT22;12318;51.262;7.066;2023-01-28T13:08:23;1.20;99.90
24162;DHT22;12318;51.262;7.066;2023-01-28T13:10:51;1.10;99.90
24162;DHT22;12318;51.262;7.066;2023-01-28T13:13:24;1.10;99.90
24162;DHT22;12318;51.262;7.066;2023-01-28T13:15:51;1.00;99.90
24162;DHT22;12318;51.262;7.066;2023-01-28T13:21:04;1.00;99.90
24162;DHT22;12318;51.262;7.066;2023-01-28T13:25:57;0.80;99.90
24162;DHT22;12318;51.262;7.066;2023-01-28T13:28:33;0.90;99.90
24162;DHT22;12318;51.262;7.066;2023-01-28T13:31:09;0.90;99.90
24162;DHT22;12318;51.262;7.066;2023-01-28T13:33:40;1.00;99.90
24162;DHT22;12318;51.262;7.066;2023-01-28T13:41:41;1.50;99.90
24162;DHT22;12318;51.262;7.066;2023-01-28T13:44:31;1.50;99.90
24162;DHT22;12318;51.262;7.066;2023-01-28T13:47:23;1.30;99.90
24162;DHT22;12318;51.262;7.066;2023-01-28T13:50:00;1.00;99.90
24162;DHT22;12318;51.262;7.066;2023-01-28T13:52:43;1.00;99.90
24162;DHT22;12318;51.262;7.066;2023-01-28T14:03:41;1.60;99.90
24162;DHT22;12318;51.262;7.066;2023-01-28T14:08:44;1.60;99.90
24162;DHT22;12318;51.262;7.066;2023-01-28T14:11:55;1.40;99.90
24162;DHT22;12318;51.262;7.066;2023-01-28T14:19:52;1.60;99.90
24162;DHT22;12318;51.262;7.066;2023-01-28T14:22:19;1.70;99.90
24162;DHT22;12318;51.262;7.066;2023-01-28T14:24:46;1.70;99.90
24162;DHT22;12318;51.262;7.066;2023-01-28T14:27:26;1.60;99.90
24162;DHT22;12318;51.262;7.066;2023-01-28T14:32:47;1.60;99.90
24162;DHT22;12318;51.262;7.066;2023-01-28T14:35:31;1.60;99.90
24162;DHT22;12318;51.262;7.066;2023-01-28T14:37:59;1.70;99.90
24162;DHT22;12318;51.262;7.066;2023-01-28T14:40:31;1.60;99.90
24162;DHT22;12318;51.262;7.066;2023-01-28T14:42:58;1.20;99.90
24162;DHT22;12318;51.262;7.066;2023-01-28T14:48:51;1.10;99.90
24162;DHT22;12318;51.262;7.066;2023-01-28T14:51:43;1.20;99.90
24162;DHT22;12318;51.262;7.066;2023-01-28T15:02:34;1.00;99.90
24162;DHT22;12318;51.262;7.066;2023-01-28T15:05:08;1.10;99.90
24162;DHT22;12318;51.262;7.066;2023-01-28T15:07:34;1.30;99.90
24162;DHT22;12318;51.262;7.066;2023-01-28T15:10:05;1.40;99.90
24162;DHT22;12318;51.262;7.066;2023-01-28T15:12:37;1.50;99.90
24162;DHT22;12318;51.262;7.066;2023-01-28T15:15:09;1.50;99.90
24162;DHT22;12318;51.262;7.066;2023-01-28T15:17:35;1.60;99.90
24162;DHT22;12318;51.262;7.066;2023-01-28T15:20:01;1.50;99.90
24162;DHT22;12318;51.262;7.066;2023-01-28T15:22:28;1.40;99.90
24162;DHT22;12318;51.262;7.066;2023-01-28T15:24:55;1.70;99.90
24162;DHT22;12318;51.262;7.066;2023-01-28T15:27:27;1.70;99.90
24162;DHT22;12318;51.262;7.066;2023-01-28T15:29:58;1.70;99.90
24162;DHT22;12318;51.262;7.066;2023-01-28T15:32:30;1.60;99.90
24162;DHT22;12318;51.262;7.066;2023-01-28T15:34:58;1.50;99.90
24162;DHT22;12318;51.262;7.066;2023-01-28T15:37:25;1.50;99.90
24162;DHT22;12318;51.262;7.066;2023-01-28T15:40:02;1.50;99.90
24162;DHT22;12318;51.262;7.066;2023-01-28T15:42:30;1.40;99.90
24162;DHT22;12318;51.262;7.066;2023-01-28T15:44:57;1.40;99.90
24162;DHT22;12318;51.262;7.066;2023-01-28T15:47:32;1.30;99.90
24162;DHT22;12318;51.262;7.066;2023-01-28T15:50:03;1.20;99.90
24162;DHT22;12318;51.262;7.066;2023-01-28T15:52:33;1.10;99.90
24162;DHT22;12318;51.262;7.066;2023-01-28T15:55:01;1.10;99.90
24162;DHT22;12318;51.262;7.066;2023-01-28T15:57:31;1.10;99.90
24162;DHT22;12318;51.262;7.066;2023-01-28T16:00:18;1.00;99.90
24162;DHT22;12318;51.262;7.066;2023-01-28T16:02:52;0.90;99.90
24162;DHT22;12318;51.262;7.066;2023-01-28T16:05:39;0.90;99.90
24162;DHT22;12318;51.262;7.066;2023-01-28T16:08:11;0.80;99.90
24162;DHT22;12318;51.262;7.066;2023-01-28T16:10:41;0.80;99.90
24162;DHT22;12318;51.262;7.066;2023-01-28T16:15:36;0.60;99.90
24162;DHT22;12318;51.262;7.066;2023-01-28T16:18:04;0.60;99.90
24162;DHT22;12318;51.262;7.066;2023-01-28T16:20:31;0.60;99.90
24162;DHT22;12318;51.262;7.066;2023-01-28T16:23:00;0.50;99.90
24162;DHT22;12318;51.262;7.066;2023-01-28T16:25:32;0.50;99.90
24162;DHT22;12318;51.262;7.066;2023-01-28T16:27:59;0.40;99.90
24162;DHT22;12318;51.262;7.066;2023-01-28T16:30:26;0.40;99.90
24162;DHT22;12318;51.262;7.066;2023-01-28T16:32:53;0.40;99.90
24162;DHT22;12318;51.262;7.066;2023-01-28T16:35:27;0.40;99.90
24162;DHT22;12318;51.262;7.066;2023-01-28T16:37:53;0.40;99.90
24162;DHT22;12318;51.262;7.066;2023-01-28T16:40:23;0.30;99.90
24162;DHT22;12318;51.262;7.066;2023-01-28T16:42:52;0.40;99.90
24162;DHT22;12318;51.262;7.066;2023-01-28T16:45:21;0.30;99.90
24162;DHT22;12318;51.262;7.066;2023-01-28T16:47:48;0.30;99.90
24162;DHT22;12318;51.262;7.066;2023-01-28T16:50:14;0.30;99.90
24162;DHT22;12318;51.262;7.066;2023-01-28T16:52:45;0.30;99.90
24162;DHT22;12318;51.262;7.066;2023-01-28T16:55:13;0.30;99.90
24162;DHT22;12318;51.262;7.066;2023-01-28T16:57:40;0.20;99.90
24162;DHT22;12318;51.262;7.066;2023-01-28T17:00:21;0.20;99.90
24162;DHT22;12318;51.262;7.066;2023-01-28T17:02:49;0.40;99.90
24162;DHT22;12318;51.262;7.066;2023-01-28T17:05:15;0.60;99.90
24162;DHT22;12318;51.262;7.066;2023-01-28T17:07:41;0.40;99.90
24162;DHT22;12318;51.262;7.066;2023-01-28T17:10:08;0.20;99.90
24162;DHT22;12318;51.262;7.066;2023-01-28T17:12:34;0.00;99.90
24162;DHT22;12318;51.262;7.066;2023-01-28T17:15:00;-0.10;99.90
24162;DHT22;12318;51.262;7.066;2023-01-28T17:17:25;-0.20;99.90
24162;DHT22;12318;51.262;7.066;2023-01-28T17:19:51;-0.20;99.90
24162;DHT22;12318;51.262;7.066;2023-01-28T17:22:17;-0.20;99.90
24162;DHT22;12318;51.262;7.066;2023-01-28T17:24:43;-0.10;99.90
24162;DHT22;12318;51.262;7.066;2023-01-28T17:27:08;0.00;99.90
24162;DHT22;12318;51.262;7.066;2023-01-28T17:29:34;0.00;99.90
24162;DHT22;12318;51.262;7.066;2023-01-28T17:32:00;-0.10;99.90
24162;DHT22;12318;51.262;7.066;2023-01-28T17:34:26;-0.20;99.90
24162;DHT22;12318;51.262;7.066;2023-01-28T17:36:52;-0.20;99.90
24162;DHT22;12318;51.262;7.066;2023-01-28T17:39:18;-0.10;99.90
24162;DHT22;12318;51.262;7.066;2023-01-28T17:41:43;-0.20;99.90
24162;DHT22;12318;51.262;7.066;2023-01-28T17:44:11;-0.20;99.90
24162;DHT22;12318;51.262;7.066;2023-01-28T17:46:39;-0.10;99.90
24162;DHT22;12318;51.262;7.066;2023-01-28T17:49:05;-0.20;99.90
24162;DHT22;12318;51.262;7.066;2023-01-28T17:51:31;-0.20;99.90
24162;DHT22;12318;51.262;7.066;2023-01-28T17:53:57;-0.30;99.90
24162;DHT22;12318;51.262;7.066;2023-01-28T17:56:25;-0.10;99.90
24162;DHT22;12318;51.262;7.066;2023-01-28T17:58:52;0.10;99.90
24162;DHT22;12318;51.262;7.066;2023-01-28T18:01:19;-0.10;99.90
24162;DHT22;12318;51.262;7.066;2023-01-28T18:03:45;-0.10;99.90
24162;DHT22;12318;51.262;7.066;2023-01-28T18:06:10;-0.20;99.90
24162;DHT22;12318;51.262;7.066;2023-01-28T18:08:36;-0.20;99.90
24162;DHT22;12318;51.262;7.066;2023-01-28T18:11:03;-0.20;99.90
24162;DHT22;12318;51.262;7.066;2023-01-28T18:13:33;-0.10;99.90
24162;DHT22;12318;51.262;7.066;2023-01-28T18:15:59;-0.20;99.90
24162;DHT22;12318;51.262;7.066;2023-01-28T18:18:24;-0.40;99.90
24162;DHT22;12318;51.262;7.066;2023-01-28T18:21:02;-0.50;99.90
24162;DHT22;12318;51.262;7.066;2023-01-28T18:23:30;-0.50;99.90
24162;DHT22;12318;51.262;7.066;2023-01-28T18:25:56;-0.50;99.90
24162;DHT22;12318;51.262;7.066;2023-01-28T18:28:23;-0.40;99.90
24162;DHT22;12318;51.262;7.066;2023-01-28T18:30:49;-0.30;99.90